Time;durP1;ratioP1;P1;durP2;ratioP2;P2;SDS_P1;SDS_P2;PMS_P1;PMS_P2;Temp;Humidity;BMP_temperature;BMP_pressure;BME280_temperature;BME280_humidity;BME280_pressure;Samples;Min_cycle;Max_cycle;Signal;HPM_P1;HPM_P2
2023/05/25 00:02:04;;;;;;;14.17;4.03;;;12.90;99.90;;;;;;7284634;19;20184;-80
2023/05/25 00:04:33;;;;;;;11.87;4.10;;;13.00;99.90;;;;;;7283736;19;20249;-80
2023/05/25 00:06:59;;;;;;;16.00;4.77;;;12.90;99.90;;;;;;7284547;19;20260;-81
2023/05/25 00:09:25;;;;;;;13.67;4.40;;;13.00;99.90;;;;;;7284099;19;20180;-80
2023/05/25 00:11:51;;;;;;;15.53;4.53;;;12.90;99.90;;;;;;7302697;19;20929;-80
2023/05/25 00:14:18;;;;;;;16.67;5.00;;;12.90;99.90;;;;;;7283960;19;20244;-80
2023/05/25 00:16:47;;;;;;;15.07;4.57;;;12.90;99.90;;;;;;7284505;19;20191;-80
2023/05/25 00:19:13;;;;;;;15.63;4.70;;;12.90;99.90;;;;;;7284955;19;20200;-80
2023/05/25 00:21:40;;;;;;;15.77;5.23;;;12.90;99.90;;;;;;7284080;19;20206;-81
2023/05/25 00:24:07;;;;;;;12.80;4.43;;;13.00;99.90;;;;;;7284429;19;20248;-80
2023/05/25 00:26:36;;;;;;;12.63;4.40;;;13.00;99.90;;;;;;7283682;19;20199;-81
2023/05/25 00:29:03;;;;;;;17.00;4.83;;;12.80;99.90;;;;;;7283121;19;20180;-80
2023/05/25 00:31:31;;;;;;;17.77;4.97;;;12.80;99.90;;;;;;7285793;19;20202;-80
2023/05/25 00:33:59;;;;;;;16.87;4.93;;;12.80;99.90;;;;;;7282656;19;20181;-80
2023/05/25 00:36:25;;;;;;;14.90;5.17;;;12.80;99.90;;;;;;7283805;19;20267;-80
2023/05/25 00:38:50;;;;;;;14.40;4.77;;;12.80;99.90;;;;;;7305727;19;20203;-80
2023/05/25 00:41:17;;;;;;;15.33;5.13;;;12.80;99.90;;;;;;7284361;19;20189;-80
2023/05/25 00:43:46;;;;;;;18.90;5.40;;;12.80;99.90;;;;;;7282062;19;20203;-80
2023/05/25 00:46:15;;;;;;;17.70;5.17;;;12.80;99.90;;;;;;7283734;19;21452;-80
2023/05/25 00:48:42;;;;;;;19.93;5.53;;;12.80;99.90;;;;;;7284206;19;20536;-80
2023/05/25 00:51:09;;;;;;;17.63;5.20;;;12.80;99.90;;;;;;7282347;19;20192;-80
2023/05/25 00:53:38;;;;;;;18.10;5.00;;;12.80;99.90;;;;;;7282093;19;20185;-80
2023/05/25 00:56:12;;;;;;;21.03;5.20;;;12.70;99.90;;;;;;7281663;19;20197;-80
2023/05/25 00:58:42;;;;;;;14.63;4.90;;;12.60;99.90;;;;;;7282776;19;20196;-80
2023/05/25 01:01:14;;;;;;;15.20;5.23;;;12.70;99.90;;;;;;7282956;19;20536;-80
2023/05/25 01:03:44;;;;;;;21.57;5.37;;;12.70;99.90;;;;;;7283060;19;20193;-80
2023/05/25 01:06:15;;;;;;;18.60;6.07;;;12.60;99.90;;;;;;7282013;19;20655;-80
2023/05/25 01:08:46;;;;;;;16.67;5.23;;;12.70;99.90;;;;;;7280098;19;20189;-80
2023/05/25 01:11:13;;;;;;;18.13;5.23;;;12.60;99.90;;;;;;7283044;19;20314;-80
2023/05/25 01:13:41;;;;;;;23.13;6.03;;;12.50;99.90;;;;;;7282619;19;20181;-81
2023/05/25 01:16:08;;;;;;;18.47;5.70;;;12.60;99.90;;;;;;7282426;19;20185;-80
2023/05/25 01:18:34;;;;;;;20.73;5.03;;;12.60;99.90;;;;;;7282240;19;20189;-80
2023/05/25 01:21:21;;;;;;;18.90;5.53;;;12.60;99.90;;;;;;7281832;19;20181;-80
2023/05/25 01:24:04;;;;;;;21.73;5.67;;;12.50;99.90;;;;;;7288648;19;20664;-80
2023/05/25 01:26:35;;;;;;;17.87;6.00;;;12.30;99.90;;;;;;7185201;19;2004425;-80
2023/05/25 01:29:01;;;;;;;18.37;5.50;;;12.30;99.90;;;;;;7289551;19;20192;-80
2023/05/25 01:31:28;;;;;;;16.70;5.77;;;12.30;99.90;;;;;;7289712;19;20206;-81
2023/05/25 01:33:55;;;;;;;18.90;5.70;;;12.20;99.90;;;;;;7292020;19;20186;-80
2023/05/25 01:36:21;;;;;;;23.77;6.10;;;12.30;99.90;;;;;;7310774;19;20249;-80
2023/05/25 01:38:47;;;;;;;15.67;5.33;;;12.20;99.90;;;;;;7287510;19;20299;-80
2023/05/25 01:41:13;;;;;;;21.10;5.57;;;12.10;99.90;;;;;;7288805;19;20300;-81
2023/05/25 01:43:40;;;;;;;19.73;5.70;;;12.30;99.90;;;;;;7287126;19;20203;-80
2023/05/25 01:46:17;;;;;;;19.63;5.77;;;12.30;99.90;;;;;;7287922;19;20555;-80
2023/05/25 01:49:08;;;;;;;20.77;5.63;;;12.30;99.90;;;;;;7288140;19;20202;-80
2023/05/25 01:51:47;;;;;;;19.33;6.30;;;12.10;99.90;;;;;;7185646;19;2006237;-80
2023/05/25 01:54:24;;;;;;;20.10;5.60;;;12.10;99.90;;;;;;7289046;19;20195;-80
2023/05/25 01:56:51;;;;;;;24.87;6.13;;;12.10;99.90;;;;;;7288060;19;20204;-80
2023/05/25 01:59:20;;;;;;;17.43;5.50;;;12.10;99.90;;;;;;7288802;19;20278;-80
2023/05/25 02:01:48;;;;;;;17.77;5.63;;;12.20;99.90;;;;;;7288892;19;20256;-80
2023/05/25 02:04:16;;;;;;;20.13;5.87;;;12.20;99.90;;;;;;7287984;19;20188;-80
2023/05/25 02:06:41;;;;;;;18.30;6.00;;;12.00;99.90;;;;;;7285140;19;20945;-80
2023/05/25 02:09:07;;;;;;;15.37;5.93;;;11.80;99.90;;;;;;7285446;19;20219;-80
2023/05/25 02:11:33;;;;;;;15.63;5.83;;;11.70;99.90;;;;;;7287908;19;20661;-80
2023/05/25 02:13:59;;;;;;;17.30;5.67;;;11.80;99.90;;;;;;7287218;19;20193;-80
2023/05/25 02:16:26;;;;;;;18.27;6.20;;;11.80;99.90;;;;;;7285915;19;20206;-80
2023/05/25 02:18:52;;;;;;;24.00;6.10;;;11.80;99.90;;;;;;7308873;19;20548;-80
2023/05/25 02:21:17;;;;;;;19.83;6.47;;;11.70;99.90;;;;;;7286611;19;20181;-80
2023/05/25 02:23:43;;;;;;;16.47;6.27;;;11.80;99.90;;;;;;7287872;19;20557;-80
2023/05/25 02:26:09;;;;;;;21.00;6.97;;;11.80;99.90;;;;;;7287127;19;20191;-80
2023/05/25 02:28:36;;;;;;;23.10;6.70;;;11.90;99.90;;;;;;7286416;19;20308;-80
2023/05/25 02:31:02;;;;;;;22.20;6.67;;;11.80;99.90;;;;;;7288625;19;20193;-79
2023/05/25 02:33:28;;;;;;;22.57;7.67;;;11.80;99.90;;;;;;7284923;19;20189;-80
2023/05/25 02:35:55;;;;;;;22.03;7.80;;;11.70;99.90;;;;;;7286528;19;20603;-80
2023/05/25 02:38:21;;;;;;;21.33;6.97;;;11.80;99.90;;;;;;7308103;19;20253;-80
2023/05/25 02:40:46;;;;;;;20.97;6.77;;;11.70;99.90;;;;;;7287737;19;20191;-80
2023/05/25 02:43:12;;;;;;;19.60;6.70;;;11.60;99.90;;;;;;7285001;19;20288;-80
2023/05/25 02:45:38;;;;;;;29.07;7.90;;;11.60;99.90;;;;;;7285985;19;20200;-80
2023/05/25 02:48:04;;;;;;;22.67;7.50;;;11.80;99.90;;;;;;7285836;19;20203;-80
2023/05/25 02:50:32;;;;;;;18.67;7.17;;;11.80;99.90;;;;;;7286037;19;20202;-80
2023/05/25 02:53:01;;;;;;;21.13;7.43;;;11.70;99.90;;;;;;7284867;19;20214;-81
2023/05/25 02:55:27;;;;;;;17.27;7.07;;;11.60;99.90;;;;;;7284898;19;20511;-80
2023/05/25 02:57:53;;;;;;;19.03;7.40;;;11.50;99.90;;;;;;7300074;19;20188;-80
2023/05/25 03:00:41;;;;;;;21.80;6.90;;;11.40;99.90;;;;;;7285843;19;20718;-80
2023/05/25 03:03:08;;;;;;;22.00;6.70;;;11.50;99.90;;;;;;7286840;19;20195;-80
2023/05/25 03:05:34;;;;;;;20.07;6.93;;;11.30;99.90;;;;;;7286199;19;20560;-80
2023/05/25 03:08:00;;;;;;;22.77;7.20;;;11.40;99.90;;;;;;7284836;19;20251;-80
2023/05/25 03:10:26;;;;;;;18.73;6.93;;;11.40;99.90;;;;;;7284175;19;20222;-80
2023/05/25 03:12:52;;;;;;;21.10;7.90;;;11.30;99.90;;;;;;7307025;19;20183;-80
2023/05/25 03:15:18;;;;;;;20.60;7.83;;;11.30;99.90;;;;;;7285834;19;20191;-80
2023/05/25 03:17:44;;;;;;;25.53;7.83;;;11.40;99.90;;;;;;7286130;19;20174;-80
2023/05/25 03:20:10;;;;;;;23.43;7.57;;;11.40;99.90;;;;;;7285412;19;20186;-80
2023/05/25 03:22:39;;;;;;;20.00;7.40;;;11.40;99.90;;;;;;7283963;19;20213;-80
2023/05/25 03:25:05;;;;;;;23.03;8.43;;;11.40;99.90;;;;;;7284142;19;20194;-80
2023/05/25 03:27:32;;;;;;;17.73;7.30;;;11.50;99.90;;;;;;7284094;19;20611;-80
2023/05/25 03:29:58;;;;;;;21.73;7.40;;;11.60;99.90;;;;;;7285013;19;20191;-80
2023/05/25 03:32:24;;;;;;;18.20;7.27;;;11.80;99.90;;;;;;7290888;19;20249;-80
2023/05/25 03:34:50;;;;;;;18.77;7.23;;;11.70;99.90;;;;;;7305651;19;20189;-80
2023/05/25 03:37:16;;;;;;;22.47;8.33;;;11.50;99.90;;;;;;7283924;19;20222;-80
2023/05/25 03:39:43;;;;;;;25.30;7.37;;;11.40;99.90;;;;;;7285073;19;20199;-80
2023/05/25 03:42:09;;;;;;;23.83;7.70;;;11.30;99.90;;;;;;7283297;19;20264;-80
2023/05/25 03:44:35;;;;;;;26.17;7.87;;;11.30;99.90;;;;;;7284401;19;20192;-80
2023/05/25 03:47:01;;;;;;;19.40;7.60;;;11.30;99.90;;;;;;7284920;19;20198;-80
2023/05/25 03:49:28;;;;;;;23.03;7.90;;;11.50;99.90;;;;;;7285641;19;20185;-80
2023/05/25 03:51:58;;;;;;;21.43;7.77;;;11.60;99.90;;;;;;7285088;19;20253;-80
2023/05/25 03:54:25;;;;;;;20.00;7.87;;;11.80;99.90;;;;;;7284106;19;20189;-80
2023/05/25 03:56:51;;;;;;;21.60;8.07;;;11.90;99.90;;;;;;7307263;19;20219;-80
2023/05/25 03:59:17;;;;;;;20.93;7.93;;;11.90;99.90;;;;;;7284404;19;20299;-80
2023/05/25 04:01:43;;;;;;;20.07;7.53;;;11.90;99.90;;;;;;7285415;19;20675;-81
2023/05/25 04:04:09;;;;;;;21.43;7.63;;;11.80;99.90;;;;;;7284843;19;20182;-80
2023/05/25 04:06:36;;;;;;;27.47;7.77;;;11.60;99.90;;;;;;7283606;19;20188;-80
2023/05/25 04:09:03;;;;;;;22.33;7.73;;;11.50;99.90;;;;;;7283497;19;20240;-80
2023/05/25 04:11:29;;;;;;;22.40;7.30;;;11.40;99.90;;;;;;7283437;19;20263;-80
2023/05/25 04:13:55;;;;;;;19.37;7.10;;;11.50;99.90;;;;;;7283952;19;20222;-80
2023/05/25 04:16:25;;;;;;;21.37;7.00;;;11.40;99.90;;;;;;7292782;19;20538;-80
2023/05/25 04:18:51;;;;;;;22.77;7.57;;;11.40;99.90;;;;;;7306065;19;20197;-80
2023/05/25 04:21:16;;;;;;;24.87;7.53;;;11.40;99.90;;;;;;7285325;19;20183;-80
2023/05/25 04:23:43;;;;;;;23.07;8.07;;;11.40;99.90;;;;;;7285691;19;20207;-80
2023/05/25 04:26:09;;;;;;;19.87;7.20;;;11.50;99.90;;;;;;7286966;19;20191;-80
2023/05/25 04:28:36;;;;;;;20.20;7.27;;;11.70;99.90;;;;;;7286654;19;20228;-80
2023/05/25 04:31:21;;;;;;;17.77;7.23;;;11.70;99.90;;;;;;7287176;19;20192;-80
2023/05/25 04:34:05;;;;;;;24.13;7.60;;;11.80;99.90;;;;;;7181641;19;2004631;-80
2023/05/25 04:36:41;;;;;;;24.30;7.87;;;11.80;99.90;;;;;;7284561;19;20249;-80
2023/05/25 04:39:08;;;;;;;17.60;7.23;;;12.00;99.90;;;;;;7283660;19;20197;-80
2023/05/25 04:41:38;;;;;;;19.20;7.30;;;12.20;99.90;;;;;;7284287;19;20193;-80
2023/05/25 04:44:08;;;;;;;21.17;7.00;;;12.80;99.90;;;;;;7282496;19;20203;-80
2023/05/25 04:46:38;;;;;;;17.60;6.53;;;13.60;99.90;;;;;;7289014;19;20659;-81
2023/05/25 04:49:04;;;;;;;23.00;6.87;;;14.40;99.90;;;;;;7289298;19;20181;-80
2023/05/25 04:51:31;;;;;;;22.80;6.83;;;15.10;99.90;;;;;;7287765;19;20186;-81
2023/05/25 04:53:58;;;;;;;19.90;6.67;;;15.40;99.90;;;;;;7281263;19;20180;-81
2023/05/25 04:56:25;;;;;;;18.57;6.03;;;15.80;99.90;;;;;;7293519;19;20211;-80
2023/05/25 04:58:52;;;;;;;14.77;5.30;;;16.30;99.90;;;;;;7311762;19;20188;-79
2023/05/25 05:01:19;;;;;;;18.50;6.37;;;16.40;99.90;;;;;;7290753;19;20176;-79
2023/05/25 05:03:45;;;;;;;16.80;6.10;;;16.70;99.90;;;;;;7290233;19;20195;-79
2023/05/25 05:06:12;;;;;;;17.27;6.03;;;17.10;99.90;;;;;;7290640;19;20225;-79
2023/05/25 05:08:38;;;;;;;16.77;5.90;;;17.40;99.90;;;;;;7289889;19;20188;-79
2023/05/25 05:11:04;;;;;;;17.33;6.50;;;17.40;99.90;;;;;;7289458;19;20189;-79
2023/05/25 05:13:30;;;;;;;17.90;5.90;;;17.70;99.90;;;;;;7289692;19;20276;-79
2023/05/25 05:15:56;;;;;;;17.23;6.30;;;18.20;99.90;;;;;;7289731;19;20189;-79
2023/05/25 05:18:22;;;;;;;17.87;5.97;;;18.50;99.90;;;;;;7312082;19;20188;-81
2023/05/25 05:20:47;;;;;;;18.60;5.93;;;18.90;99.90;;;;;;7290139;19;20569;-80
2023/05/25 05:23:13;;;;;;;14.43;5.40;;;19.10;99.90;;;;;;7287464;19;20281;-81
2023/05/25 05:25:39;;;;;;;18.57;6.33;;;19.30;99.90;;;;;;7288422;19;20193;-81
2023/05/25 05:28:06;;;;;;;18.73;6.10;;;19.30;99.90;;;;;;7289718;19;20206;-81
2023/05/25 05:30:37;;;;;;;15.63;5.97;;;19.30;99.90;;;;;;7286670;19;20252;-81
2023/05/25 05:33:03;;;;;;;19.13;5.80;;;19.70;99.90;;;;;;7289473;19;21293;-81
2023/05/25 05:35:34;;;;;;;15.07;6.03;;;19.40;99.90;;;;;;7289160;19;20211;-82
2023/05/25 05:38:06;;;;;;;20.00;6.43;;;20.00;99.90;;;;;;7287500;19;20608;-82
2023/05/25 05:40:32;;;;;;;18.03;5.80;;;19.80;99.90;;;;;;7289381;19;20189;-82
2023/05/25 05:42:58;;;;;;;16.30;5.57;;;19.10;99.90;;;;;;7288211;19;20200;-81
2023/05/25 05:45:23;;;;;;;14.27;5.13;;;19.30;99.90;;;;;;7306262;19;20181;-78
2023/05/25 05:47:49;;;;;;;14.63;5.77;;;20.10;99.90;;;;;;7299919;19;20189;-78
2023/05/25 05:50:17;;;;;;;16.87;5.50;;;20.40;99.90;;;;;;7286956;19;20189;-79
2023/05/25 05:52:42;;;;;;;16.33;5.90;;;20.70;99.90;;;;;;7288090;19;20192;-79
2023/05/25 05:55:10;;;;;;;17.47;5.40;;;21.10;99.90;;;;;;7287588;19;20206;-79
2023/05/25 05:57:38;;;;;;;14.13;5.47;;;21.90;99.90;;;;;;7284465;19;20184;-79
2023/05/25 06:00:05;;;;;;;15.60;5.27;;;21.90;99.90;;;;;;7288349;19;20206;-79
2023/05/25 06:02:40;;;;;;;16.07;6.20;;;21.80;99.90;;;;;;7285257;19;20254;-78
2023/05/25 06:05:07;;;;;;;17.27;5.50;;;22.20;99.90;;;;;;7287400;19;20221;-79
2023/05/25 06:07:34;;;;;;;18.50;5.77;;;22.40;99.90;;;;;;7285787;19;20657;-78
2023/05/25 06:10:00;;;;;;;14.73;5.03;;;22.00;99.90;;;;;;7281852;19;20203;-79
2023/05/25 06:12:26;;;;;;;16.20;5.50;;;22.10;99.90;;;;;;7284718;19;20188;-79
2023/05/25 06:14:52;;;;;;;13.30;5.13;;;22.70;99.90;;;;;;7306195;19;20196;-79
2023/05/25 06:17:18;;;;;;;19.70;5.30;;;22.10;99.90;;;;;;7285620;19;20191;-79
2023/05/25 06:19:44;;;;;;;18.47;5.37;;;21.40;99.90;;;;;;7287435;19;20211;-80
2023/05/25 06:22:10;;;;;;;18.57;5.27;;;21.50;99.90;;;;;;7284870;19;20255;-79
2023/05/25 06:24:35;;;;;;;17.90;5.40;;;22.10;99.90;;;;;;7286481;19;20192;-79
2023/05/25 06:27:04;;;;;;;13.70;5.17;;;22.00;99.90;;;;;;7285881;19;20189;-79
2023/05/25 06:29:30;;;;;;;16.00;4.90;;;21.20;99.90;;;;;;7285838;19;20216;-79
2023/05/25 06:31:56;;;;;;;15.97;5.53;;;21.00;99.90;;;;;;7286740;19;20186;-79
2023/05/25 06:34:22;;;;;;;16.67;5.20;;;20.90;99.90;;;;;;7308162;19;20184;-79
2023/05/25 06:36:48;;;;;;;18.07;6.23;;;20.90;99.90;;;;;;7284434;19;20675;-79
2023/05/25 06:39:14;;;;;;;17.37;5.73;;;21.10;99.90;;;;;;7286237;19;20193;-79
2023/05/25 06:41:40;;;;;;;14.13;4.53;;;21.40;99.90;;;;;;7285640;19;20674;-79
2023/05/25 06:44:06;;;;;;;14.40;4.73;;;21.10;99.90;;;;;;7286274;19;20582;-79
2023/05/25 06:46:40;;;;;;;14.70;4.97;;;21.70;99.90;;;;;;7286005;19;20304;-79
2023/05/25 06:49:07;;;;;;;17.33;5.23;;;22.80;99.90;;;;;;7284302;19;20248;-79
2023/05/25 06:51:33;;;;;;;13.03;4.73;;;23.50;99.90;;;;;;7285386;19;20210;-79
2023/05/25 06:53:59;;;;;;;18.23;5.10;;;23.50;99.90;;;;;;7284862;19;20205;-80
2023/05/25 06:56:25;;;;;;;16.63;4.80;;;23.10;99.90;;;;;;7290880;19;20193;-80
2023/05/25 06:58:51;;;;;;;15.30;5.10;;;23.40;99.90;;;;;;7308641;19;20342;-79
2023/05/25 07:01:16;;;;;;;15.63;5.13;;;22.90;99.90;;;;;;7286257;19;20193;-79
2023/05/25 07:03:42;;;;;;;13.90;5.13;;;22.60;99.90;;;;;;7285009;19;20193;-80
2023/05/25 07:06:10;;;;;;;14.07;4.60;;;23.10;99.90;;;;;;7283772;19;20196;-80
2023/05/25 07:08:36;;;;;;;17.03;4.73;;;23.40;99.90;;;;;;7285394;19;20723;-79
2023/05/25 07:11:02;;;;;;;13.73;4.50;;;23.20;99.90;;;;;;7285482;19;20181;-80
2023/05/25 07:13:28;;;;;;;12.07;4.83;;;23.20;99.90;;;;;;7285426;19;20204;-79
2023/05/25 07:15:54;;;;;;;18.17;4.60;;;23.30;99.90;;;;;;7299984;19;20611;-79
2023/05/25 07:18:20;;;;;;;14.60;4.27;;;23.70;99.90;;;;;;7299199;19;20691;-80
2023/05/25 07:20:47;;;;;;;14.97;4.53;;;23.90;99.90;;;;;;7284024;19;20687;-79
2023/05/25 07:23:13;;;;;;;14.10;4.27;;;24.30;99.90;;;;;;7285587;19;20193;-79
2023/05/25 07:25:39;;;;;;;15.27;4.63;;;23.60;99.90;;;;;;7287266;19;20192;-79
2023/05/25 07:28:06;;;;;;;14.87;4.50;;;23.40;99.90;;;;;;7282315;19;20200;-79
2023/05/25 07:30:32;;;;;;;14.07;4.33;;;23.40;99.90;;;;;;7286485;19;20238;-79
2023/05/25 07:32:57;;;;;;;15.43;4.80;;;23.70;99.90;;;;;;7283090;19;20188;-80
2023/05/25 07:35:24;;;;;;;15.63;4.43;;;23.80;99.90;;;;;;7302467;19;20181;-79
2023/05/25 07:38:03;;;;;;;13.27;4.47;;;24.40;99.90;;;;;;7305361;19;20207;-79
2023/05/25 07:40:29;;;;;;;14.88;4.57;;;24.90;99.90;;;;;;7182896;19;2004488;-79
2023/05/25 07:42:55;;;;;;;14.88;4.15;;;24.80;99.90;;;;;;7286612;19;20176;-79
2023/05/25 07:45:21;;;;;;;16.20;4.53;;;27.30;99.90;;;;;;7308215;19;20184;-80
2023/05/25 07:47:47;;;;;;;14.73;4.63;;;27.70;98.20;;;;;;7283131;19;20210;-80
2023/05/25 07:50:14;;;;;;;15.07;4.47;;;27.10;97.70;;;;;;7284835;19;20188;-79
2023/05/25 07:52:40;;;;;;;16.42;4.65;;;26.00;97.30;;;;;;7283915;19;20189;-79
2023/05/25 07:55:06;;;;;;;17.02;4.47;;;25.40;97.90;;;;;;7283519;19;20563;-79
2023/05/25 07:57:32;;;;;;;13.68;4.15;;;24.90;98.40;;;;;;7285812;19;20203;-80
2023/05/25 07:59:58;;;;;;;14.43;4.57;;;26.30;98.60;;;;;;7284187;19;20201;-80
2023/05/25 08:02:23;;;;;;;15.70;4.40;;;27.10;95.50;;;;;;7300669;19;20217;-80
2023/05/25 08:04:49;;;;;;;13.13;4.30;;;26.70;94.70;;;;;;7295503;19;20197;-79
2023/05/25 08:07:15;;;;;;;16.95;4.80;;;26.60;95.60;;;;;;7285328;19;21071;-79
2023/05/25 08:09:40;;;;;;;13.93;5.25;;;26.50;95.90;;;;;;7283775;19;20188;-80
2023/05/25 08:12:06;;;;;;;16.73;4.57;;;26.70;95.30;;;;;;7285585;19;20193;-80
2023/05/25 08:14:32;;;;;;;13.25;4.60;;;26.40;95.10;;;;;;7282843;19;20642;-79
2023/05/25 08:16:57;;;;;;;13.82;4.57;;;25.80;94.80;;;;;;7284543;19;20199;-79
2023/05/25 08:19:23;;;;;;;13.23;4.50;;;25.80;95.50;;;;;;7306360;19;20193;-79
2023/05/25 08:21:50;;;;;;;14.50;4.70;;;25.40;95.80;;;;;;7283309;19;20181;-79
2023/05/25 08:24:16;;;;;;;16.77;4.75;;;26.30;95.40;;;;;;7284728;19;20197;-80
2023/05/25 08:26:42;;;;;;;15.93;5.10;;;26.70;95.40;;;;;;7284131;19;20213;-80
2023/05/25 08:29:07;;;;;;;14.40;4.72;;;26.30;94.00;;;;;;7283313;19;20205;-80
2023/05/25 08:31:33;;;;;;;19.27;5.38;;;26.30;94.40;;;;;;7281446;19;20322;-80
2023/05/25 08:34:00;;;;;;;16.50;5.50;;;25.40;93.90;;;;;;7282965;19;20185;-80
2023/05/25 08:36:26;;;;;;;16.15;5.60;;;24.10;96.70;;;;;;7281569;19;20207;-79
2023/05/25 08:38:52;;;;;;;19.17;5.82;;;24.10;96.90;;;;;;7305224;19;20293;-79
2023/05/25 08:41:18;;;;;;;18.15;5.60;;;24.40;96.70;;;;;;7284270;19;20218;-80
2023/05/25 08:43:44;;;;;;;17.65;5.40;;;24.00;97.80;;;;;;7282141;19;20182;-80
2023/05/25 08:46:11;;;;;;;19.33;5.15;;;25.00;96.80;;;;;;7283593;19;20649;-80
2023/05/25 08:48:37;;;;;;;13.95;5.07;;;25.20;96.10;;;;;;7281977;19;20217;-80
2023/05/25 08:51:12;;;;;;;16.80;6.22;;;26.00;94.40;;;;;;7282188;19;20200;-80
2023/05/25 08:53:39;;;;;;;16.15;5.50;;;25.70;95.10;;;;;;7282921;19;20668;-80
2023/05/25 08:56:18;;;;;;;15.30;4.97;;;25.80;94.30;;;;;;7281707;19;20185;-80
2023/05/25 08:59:01;;;;;;;17.40;4.70;;;26.70;95.20;;;;;;7284176;19;20201;-80
2023/05/25 09:01:31;;;;;;;12.32;4.60;;;25.00;94.50;;;;;;7261116;19;20244;-80
2023/05/25 09:03:58;;;;;;;12.88;4.70;;;24.20;96.10;;;;;;7283220;19;20968;-80
2023/05/25 09:06:25;;;;;;;18.90;6.03;;;24.80;95.80;;;;;;7296421;19;20205;-80
2023/05/25 09:08:52;;;;;;;14.48;5.10;;;24.80;95.00;;;;;;7304397;19;20185;-80
2023/05/25 09:11:19;;;;;;;15.55;5.03;;;24.40;96.90;;;;;;7282479;19;20184;-80
2023/05/25 09:13:46;;;;;;;18.90;5.60;;;24.20;95.40;;;;;;7283169;19;20195;-79
2023/05/25 09:16:12;;;;;;;16.42;5.20;;;23.30;96.40;;;;;;7279549;19;20185;-80
2023/05/25 09:18:39;;;;;;;15.45;4.55;;;23.50;96.30;;;;;;7282902;19;20196;-80
2023/05/25 09:21:04;;;;;;;14.10;4.73;;;23.80;97.60;;;;;;7281716;19;20177;-79
2023/05/25 09:23:30;;;;;;;12.13;4.57;;;24.70;96.50;;;;;;7282769;19;20361;-80
2023/05/25 09:25:57;;;;;;;17.70;4.95;;;26.10;96.30;;;;;;7280381;19;20248;-80
2023/05/25 09:28:22;;;;;;;12.98;4.10;;;27.00;93.40;;;;;;7303517;19;20192;-80
2023/05/25 09:30:49;;;;;;;13.75;4.47;;;27.50;92.60;;;;;;7280168;19;20192;-80
2023/05/25 09:33:18;;;;;;;13.48;4.22;;;27.50;90.80;;;;;;7282655;19;20582;-80
2023/05/25 09:35:45;;;;;;;13.88;4.47;;;27.30;91.00;;;;;;7280722;19;20218;-80
2023/05/25 09:38:15;;;;;;;12.88;5.20;;;27.30;91.50;;;;;;7282875;19;20193;-80
2023/05/25 09:40:41;;;;;;;12.63;4.32;;;26.90;90.40;;;;;;7281546;19;20196;-80
2023/05/25 09:43:07;;;;;;;16.50;4.22;;;26.70;91.10;;;;;;7282298;19;20189;-80
2023/05/25 09:45:34;;;;;;;10.80;4.65;;;27.00;90.70;;;;;;7288199;19;20204;-80
2023/05/25 09:48:00;;;;;;;15.40;4.65;;;26.50;90.80;;;;;;7287966;19;20689;-80
2023/05/25 09:50:28;;;;;;;12.27;4.50;;;25.90;91.40;;;;;;7288480;19;20660;-80
2023/05/25 09:52:57;;;;;;;14.07;4.43;;;24.30;92.60;;;;;;7309595;19;20650;-80
2023/05/25 09:55:23;;;;;;;13.35;4.65;;;23.60;95.50;;;;;;7287280;19;20229;-80
2023/05/25 09:57:56;;;;;;;12.02;4.72;;;24.30;94.60;;;;;;7287416;19;20185;-80
2023/05/25 10:00:25;;;;;;;12.77;4.20;;;23.70;93.70;;;;;;7289658;19;20227;-80
2023/05/25 10:02:51;;;;;;;10.63;3.97;;;23.90;93.90;;;;;;7287068;19;20208;-80
2023/05/25 10:05:17;;;;;;;14.60;4.40;;;23.00;94.50;;;;;;7289158;19;20696;-80
2023/05/25 10:07:46;;;;;;;15.70;4.70;;;23.00;96.90;;;;;;7287951;19;20217;-79
2023/05/25 10:10:16;;;;;;;11.87;4.10;;;23.80;95.00;;;;;;7287193;19;20192;-80
2023/05/25 10:12:43;;;;;;;15.63;4.83;;;23.80;94.80;;;;;;7287844;19;20197;-80
2023/05/25 10:15:12;;;;;;;9.50;3.87;;;23.00;95.10;;;;;;7287858;19;20193;-80
2023/05/25 10:17:45;;;;;;;13.57;4.03;;;22.70;96.80;;;;;;7286160;19;20656;-80
2023/05/25 10:20:13;;;;;;;17.30;4.40;;;22.70;96.80;;;;;;7286834;19;20208;-79
2023/05/25 10:22:59;;;;;;;13.70;4.17;;;22.20;96.30;;;;;;7287082;19;20184;-80
2023/05/25 10:25:30;;;;;;;13.40;4.43;;;22.40;97.80;;;;;;7274167;19;20185;-79
2023/05/25 10:28:00;;;;;;;15.23;4.73;;;22.10;97.60;;;;;;7288024;19;20193;-80
2023/05/25 10:30:26;;;;;;;18.70;4.47;;;21.80;99.70;;;;;;7286975;19;20328;-80
2023/05/25 10:32:55;;;;;;;11.93;4.03;;;22.00;99.90;;;;;;7309117;19;20189;-79
2023/05/25 10:35:22;;;;;;;14.67;4.70;;;24.10;98.30;;;;;;7286983;19;20308;-80
2023/05/25 10:37:51;;;;;;;13.73;4.40;;;24.10;96.30;;;;;;7287990;19;20192;-80
2023/05/25 10:40:20;;;;;;;13.43;4.60;;;23.40;96.70;;;;;;7286831;19;20193;-79
2023/05/25 10:42:46;;;;;;;12.33;4.30;;;22.80;96.90;;;;;;7285435;19;20186;-79
2023/05/25 10:45:12;;;;;;;13.67;3.80;;;23.00;97.60;;;;;;7287323;19;20189;-80
2023/05/25 10:47:42;;;;;;;11.70;4.00;;;22.60;98.80;;;;;;7286958;19;20213;-80
2023/05/25 10:50:27;;;;;;;11.23;3.90;;;22.10;97.30;;;;;;7285175;19;20660;-79
2023/05/25 10:53:06;;;;;;;10.37;3.90;;;23.10;98.80;;;;;;7286576;19;20217;-80
2023/05/25 10:55:45;;;;;;;12.90;3.67;;;24.50;95.90;;;;;;7181151;19;2004878;-80
2023/05/25 10:58:13;;;;;;;10.43;3.97;;;24.50;96.90;;;;;;7287003;19;20200;-80
2023/05/25 11:00:39;;;;;;;11.98;3.92;;;25.30;93.70;;;;;;7287331;19;20717;-80
2023/05/25 11:03:05;;;;;;;13.48;4.18;;;24.80;93.90;;;;;;7286442;19;20662;-79
2023/05/25 11:05:33;;;;;;;8.32;3.33;;;24.40;93.40;;;;;;7286363;19;20660;-80
2023/05/25 11:08:01;;;;;;;11.52;4.13;;;24.70;93.60;;;;;;7285648;19;20562;-80
2023/05/25 11:10:47;;;;;;;12.15;3.58;;;24.80;94.10;;;;;;7285104;19;20250;-80
2023/05/25 11:13:39;;;;;;;9.77;3.25;;;25.30;94.10;;;;;;7286733;19;20193;-81
2023/05/25 11:16:14;;;;;;;10.02;3.47;;;25.10;92.90;;;;;;7181600;19;2006204;-80
2023/05/25 11:18:50;;;;;;;11.43;3.83;;;23.90;95.00;;;;;;7286320;19;20229;-80
2023/05/25 11:21:26;;;;;;;10.80;3.60;;;23.20;95.70;;;;;;7286307;19;20192;-79
2023/05/25 11:23:56;;;;;;;8.00;2.63;;;23.40;96.00;;;;;;7284142;19;20195;-80
2023/05/25 11:26:23;;;;;;;10.90;3.00;;;23.50;95.50;;;;;;7285018;19;20264;-80
2023/05/25 11:28:53;;;;;;;8.60;3.15;;;24.00;96.40;;;;;;7284608;19;20602;-80
2023/05/25 11:31:31;;;;;;;8.02;2.80;;;25.10;96.30;;;;;;7286522;19;20704;-80
2023/05/25 11:33:59;;;;;;;8.13;3.08;;;26.60;93.80;;;;;;7263441;19;20220;-80
2023/05/25 11:36:30;;;;;;;8.60;3.35;;;26.40;91.50;;;;;;7292571;19;20188;-80
2023/05/25 11:38:56;;;;;;;11.77;3.58;;;25.30;92.00;;;;;;7287315;19;20681;-80
2023/05/25 11:41:23;;;;;;;9.77;3.25;;;25.50;92.00;;;;;;7306520;19;20185;-80
2023/05/25 11:43:52;;;;;;;9.02;3.35;;;26.60;94.00;;;;;;7284160;19;20197;-80
2023/05/25 11:46:18;;;;;;;11.35;3.15;;;27.20;90.50;;;;;;7284392;19;20180;-80
2023/05/25 11:48:52;;;;;;;10.32;5.00;;;27.30;91.20;;;;;;7282385;19;20681;-79
2023/05/25 11:51:20;;;;;;;7.95;3.22;;;26.30;90.70;;;;;;7284134;19;20248;-81
2023/05/25 11:53:46;;;;;;;11.30;3.30;;;24.80;91.70;;;;;;7284461;19;20209;-80
2023/05/25 11:56:13;;;;;;;11.25;4.38;;;23.70;94.00;;;;;;7283529;19;20644;-80
2023/05/25 11:58:40;;;;;;;10.07;3.40;;;24.20;93.80;;;;;;7284158;19;20552;-80
2023/05/25 12:01:20;;;;;;;8.25;3.30;;;24.30;93.20;;;;;;7282993;19;20192;-80
2023/05/25 12:03:47;;;;;;;12.88;5.35;;;24.60;92.40;;;;;;7285318;19;20192;-80
2023/05/25 12:06:27;;;;;;;13.13;5.53;;;24.60;93.90;;;;;;7281971;19;20516;-80
2023/05/25 12:08:54;;;;;;;11.73;4.25;;;24.00;95.20;;;;;;7284162;19;20195;-80
2023/05/25 12:11:28;;;;;;;10.40;3.90;;;23.90;96.40;;;;;;7285913;19;20264;-80
2023/05/25 12:13:54;;;;;;;11.87;4.40;;;22.80;96.10;;;;;;7284473;19;20217;-80
2023/05/25 12:16:20;;;;;;;12.10;4.60;;;22.30;99.20;;;;;;7283703;19;20632;-80
2023/05/25 12:18:46;;;;;;;14.07;5.03;;;22.10;99.90;;;;;;7285492;19;20650;-80
2023/05/25 12:21:12;;;;;;;9.47;4.00;;;22.20;99.00;;;;;;7282167;19;20209;-80
2023/05/25 12:23:38;;;;;;;10.00;4.07;;;22.40;98.30;;;;;;7284240;19;20197;-80
2023/05/25 12:26:11;;;;;;;12.17;4.30;;;22.40;97.20;;;;;;7282768;19;20204;-80
2023/05/25 12:28:37;;;;;;;10.23;3.50;;;22.20;98.90;;;;;;7281249;19;20196;-80
2023/05/25 12:31:28;;;;;;;11.27;4.50;;;22.20;99.40;;;;;;7283537;19;20252;-80
2023/05/25 12:34:03;;;;;;;13.13;4.40;;;21.70;99.50;;;;;;7283336;19;20621;-79
2023/05/25 12:36:47;;;;;;;12.53;4.03;;;21.30;99.90;;;;;;7259817;19;20224;-79
2023/05/25 12:39:15;;;;;;;9.80;4.60;;;21.10;99.90;;;;;;7284026;19;20226;-79
2023/05/25 12:41:51;;;;;;;13.27;4.00;;;21.10;99.90;;;;;;7281835;19;20184;-79